createdAt,value
2018-11-11T00:00:27.946Z,7.30
2018-11-11T00:02:56.929Z,7.40
2018-11-11T00:05:25.640Z,7.30
2018-11-11T00:07:54.681Z,7.30
2018-11-11T00:10:23.805Z,7.40
2018-11-11T00:12:53.012Z,7.40
2018-11-11T00:15:22.096Z,7.40
2018-11-11T00:17:50.945Z,7.40
2018-11-11T00:20:19.977Z,7.40
2018-11-11T00:22:48.337Z,7.40
2018-11-11T00:25:17.390Z,7.40
2018-11-11T00:27:46.409Z,7.40
2018-11-11T00:30:16.653Z,7.40
2018-11-11T00:32:45.568Z,7.40
2018-11-11T00:35:14.307Z,7.30
2018-11-11T00:37:43.010Z,7.30
2018-11-11T00:40:12.644Z,7.30
2018-11-11T00:42:41.142Z,7.30
2018-11-11T00:45:10.343Z,7.20
2018-11-11T00:47:39.229Z,7.20
2018-11-11T00:50:09.049Z,7.10
2018-11-11T00:52:38.123Z,7.10
2018-11-11T00:55:09.183Z,7.10
2018-11-11T00:57:37.829Z,7.10
2018-11-11T01:00:10.959Z,7.10
2018-11-11T01:02:39.830Z,7.10
2018-11-11T01:05:09.487Z,7.20
2018-11-11T01:07:39.285Z,7.20
2018-11-11T01:10:10.021Z,7.20
2018-11-11T01:12:39.514Z,7.20
2018-11-11T01:15:09.630Z,7.30
2018-11-11T01:17:38.340Z,7.30
2018-11-11T01:20:08.346Z,7.30
2018-11-11T01:22:37.561Z,7.30
2018-11-11T01:25:07.913Z,7.30
2018-11-11T01:27:36.974Z,7.30
2018-11-11T01:30:06.354Z,7.30
2018-11-11T01:32:35.053Z,7.30
2018-11-11T01:35:04.063Z,7.30
2018-11-11T01:37:33.105Z,7.20
2018-11-11T01:40:02.167Z,7.30
2018-11-11T01:42:30.912Z,7.30
2018-11-11T01:44:59.594Z,7.30
2018-11-11T01:47:28.646Z,7.30
2018-11-11T01:49:57.678Z,7.40
2018-11-11T01:52:26.430Z,7.40
2018-11-11T01:54:54.758Z,7.30
2018-11-11T01:57:23.451Z,7.40
2018-11-11T01:59:52.489Z,7.30
2018-11-11T02:02:21.520Z,7.30
2018-11-11T02:04:50.216Z,7.30
2018-11-11T02:07:19.284Z,7.30
2018-11-11T02:09:48.393Z,7.30
2018-11-11T02:12:17.601Z,7.30
2018-11-11T02:14:46.343Z,7.20
2018-11-11T02:17:15.374Z,7.20
2018-11-11T02:19:44.101Z,7.20
2018-11-11T02:22:13.090Z,7.10
2018-11-11T02:24:42.121Z,7.20
2018-11-11T02:27:11.195Z,7.10
2018-11-11T02:29:40.233Z,7.20
2018-11-11T02:32:09.262Z,7.20
2018-11-11T02:34:38.330Z,7.20
2018-11-11T02:37:07.674Z,7.20
2018-11-11T02:39:36.862Z,7.20
2018-11-11T02:42:06.079Z,7.10
2018-11-11T02:44:35.011Z,7.10
2018-11-11T02:47:04.060Z,7.10
2018-11-11T02:49:33.097Z,7.10
2018-11-11T02:52:01.824Z,7.00
2018-11-11T02:54:30.834Z,7.00
2018-11-11T02:56:59.541Z,7.00
2018-11-11T02:59:28.577Z,7.10
2018-11-11T03:01:57.592Z,7.10
2018-11-11T03:04:26.322Z,7.10
2018-11-11T03:06:55.532Z,7.10
2018-11-11T03:09:24.272Z,7.10
2018-11-11T03:11:53.302Z,7.10
2018-11-11T03:14:22.375Z,7.10
2018-11-11T03:16:51.425Z,7.10
2018-11-11T03:19:20.125Z,7.10
2018-11-11T03:21:48.482Z,7.10
2018-11-11T03:24:17.201Z,7.10
2018-11-11T03:26:46.293Z,7.10
2018-11-11T03:29:15.341Z,7.10
2018-11-11T03:31:44.557Z,7.10
2018-11-11T03:34:13.626Z,7.10
2018-11-11T03:36:42.648Z,7.00
2018-11-11T03:39:12.727Z,7.10
2018-11-11T03:41:41.414Z,7.10
2018-11-11T03:44:10.453Z,7.10
2018-11-11T03:46:39.497Z,7.10
2018-11-11T03:49:08.177Z,7.10
2018-11-11T03:51:36.906Z,7.10
2018-11-11T03:54:05.548Z,7.10
2018-11-11T03:56:34.651Z,7.10
2018-11-11T03:59:03.028Z,7.10
2018-11-11T04:01:32.226Z,7.00
2018-11-11T04:04:00.906Z,7.00
2018-11-11T04:06:30.002Z,6.90
2018-11-11T04:08:59.066Z,7.00
2018-11-11T04:11:29.094Z,6.90
2018-11-11T04:13:57.767Z,6.90
2018-11-11T04:16:26.811Z,6.90
2018-11-11T04:18:55.801Z,6.90
2018-11-11T04:21:24.520Z,6.90
2018-11-11T04:23:53.237Z,6.90
2018-11-11T04:26:21.933Z,6.90
2018-11-11T04:28:51.074Z,7.00
2018-11-11T04:31:19.786Z,6.90
2018-11-11T04:33:48.805Z,7.00
2018-11-11T04:36:17.850Z,7.00
2018-11-11T04:38:46.912Z,7.00
2018-11-11T04:41:15.662Z,7.00
2018-11-11T04:43:44.674Z,7.00
2018-11-11T04:46:13.780Z,7.00
2018-11-11T04:48:42.738Z,7.00
2018-11-11T04:51:11.749Z,7.00
2018-11-11T04:53:40.953Z,7.00
2018-11-11T04:56:09.971Z,7.10
2018-11-11T04:58:38.671Z,7.00
2018-11-11T05:01:07.427Z,7.00
2018-11-11T05:03:36.109Z,7.00
2018-11-11T05:06:04.652Z,7.10
2018-11-11T05:08:33.755Z,7.10
2018-11-11T05:11:02.894Z,7.10
2018-11-11T05:13:31.920Z,7.10
2018-11-11T05:16:00.966Z,7.10
2018-11-11T05:18:30.023Z,7.10
2018-11-11T05:20:59.046Z,7.00
2018-11-11T05:23:28.101Z,6.90
2018-11-11T05:25:56.799Z,6.90
2018-11-11T05:28:25.841Z,6.90
2018-11-11T05:30:54.635Z,6.90
2018-11-11T05:33:23.798Z,6.90
2018-11-11T05:35:52.827Z,6.90
2018-11-11T05:38:21.883Z,6.90
2018-11-11T05:40:50.599Z,6.90
2018-11-11T05:43:19.602Z,6.90
2018-11-11T05:45:48.361Z,6.90
2018-11-11T05:48:17.382Z,6.90
2018-11-11T05:50:46.047Z,6.90
2018-11-11T05:53:15.096Z,7.00
2018-11-11T05:55:44.117Z,7.00
2018-11-11T05:58:13.105Z,7.00
2018-11-11T06:00:42.150Z,7.00
2018-11-11T06:03:10.861Z,7.10
2018-11-11T06:05:39.211Z,7.10
2018-11-11T06:08:08.222Z,7.20
2018-11-11T06:10:37.263Z,7.20
2018-11-11T06:13:06.085Z,7.20
2018-11-11T06:15:35.298Z,7.20
2018-11-11T06:18:03.623Z,7.20
2018-11-11T06:20:33.305Z,7.20
2018-11-11T06:23:01.682Z,7.20
2018-11-11T06:25:30.705Z,7.30
2018-11-11T06:27:59.704Z,7.30
2018-11-11T06:30:28.941Z,7.30
2018-11-11T06:32:58.017Z,7.30
2018-11-11T06:35:27.002Z,7.30
2018-11-11T06:37:56.055Z,7.30
2018-11-11T06:40:24.942Z,7.30
2018-11-11T06:42:53.930Z,7.30
2018-11-11T06:45:22.981Z,7.40
2018-11-11T06:47:52.031Z,7.40
2018-11-11T06:50:21.205Z,7.50
2018-11-11T06:52:49.626Z,7.50
2018-11-11T06:55:18.289Z,7.50
2018-11-11T06:57:47.394Z,7.50
2018-11-11T07:00:17.130Z,7.50
2018-11-11T07:02:57.532Z,7.60
2018-11-11T07:05:26.194Z,7.50
2018-11-11T07:07:54.933Z,7.50
2018-11-11T07:10:24.014Z,7.50
2018-11-11T07:12:53.009Z,7.60
2018-11-11T07:15:21.679Z,7.60
2018-11-11T07:17:50.801Z,7.60
2018-11-11T07:20:19.865Z,7.50
2018-11-11T07:22:48.628Z,7.50
2018-11-11T07:25:17.680Z,7.50
2018-11-11T07:27:46.693Z,7.50
2018-11-11T07:30:15.413Z,7.50
2018-11-11T07:32:44.469Z,7.40
2018-11-11T07:35:13.486Z,7.40
2018-11-11T07:37:42.518Z,7.40
2018-11-11T07:40:13.138Z,7.40
2018-11-11T07:42:42.169Z,7.40
2018-11-11T07:45:10.877Z,7.40
2018-11-11T07:47:39.587Z,7.40
2018-11-11T07:50:10.082Z,7.40
2018-11-11T07:52:39.242Z,7.40
2018-11-11T07:55:09.077Z,7.40
2018-11-11T07:57:37.889Z,7.30
2018-11-11T08:00:08.705Z,7.30
2018-11-11T08:02:37.461Z,7.40
2018-11-11T08:05:06.050Z,7.40
2018-11-11T08:07:35.266Z,7.30
2018-11-11T08:10:04.156Z,7.40
2018-11-11T08:12:33.197Z,7.40
2018-11-11T08:15:02.214Z,7.50
2018-11-11T08:17:30.937Z,7.50
2018-11-11T08:19:59.989Z,7.60
2018-11-11T08:22:29.049Z,7.80
2018-11-11T08:24:58.099Z,7.80
2018-11-11T08:27:27.005Z,7.80
2018-11-11T08:29:55.724Z,7.90
2018-11-11T08:32:24.435Z,7.90
2018-11-11T08:34:53.274Z,7.90
2018-11-11T08:37:22.312Z,8.00
2018-11-11T08:39:50.710Z,8.00
2018-11-11T08:42:19.722Z,8.00
2018-11-11T08:44:48.800Z,8.00
2018-11-11T08:47:17.824Z,8.00
2018-11-11T08:49:46.884Z,8.10
2018-11-11T08:52:16.238Z,8.20
2018-11-11T08:54:45.315Z,8.30
2018-11-11T08:57:14.009Z,8.30
2018-11-11T08:59:42.386Z,8.50
2018-11-11T09:02:11.405Z,8.40
2018-11-11T09:04:40.455Z,8.50
2018-11-11T09:07:09.338Z,8.50
2018-11-11T09:09:38.353Z,8.60
2018-11-11T09:12:07.044Z,8.60
2018-11-11T09:14:35.788Z,8.60
2018-11-11T09:17:05.182Z,8.60
2018-11-11T09:19:34.359Z,8.60
2018-11-11T09:22:05.241Z,8.60
2018-11-11T09:24:34.277Z,8.60
2018-11-11T09:27:03.145Z,8.60
2018-11-11T09:29:32.236Z,8.70
2018-11-11T09:32:01.496Z,8.80
2018-11-11T09:34:30.509Z,8.80
2018-11-11T09:36:59.554Z,8.80
2018-11-11T09:39:28.080Z,8.90
2018-11-11T09:41:57.278Z,8.90
2018-11-11T09:44:26.029Z,8.90
2018-11-11T09:46:55.055Z,8.90
2018-11-11T09:49:23.753Z,8.90
2018-11-11T09:51:52.556Z,8.90
2018-11-11T09:54:21.278Z,8.80
2018-11-11T09:56:50.338Z,8.70
2018-11-11T09:59:18.743Z,8.70
2018-11-11T10:01:47.754Z,8.80
2018-11-11T10:04:20.377Z,8.70
2018-11-11T10:06:55.061Z,8.70
2018-11-11T10:09:28.853Z,8.70
2018-11-11T10:12:13.070Z,8.70
2018-11-11T10:14:51.510Z,8.70
2018-11-11T10:17:24.921Z,8.70
2018-11-11T10:20:04.609Z,8.70
2018-11-11T10:22:48.523Z,8.70
2018-11-11T10:25:24.757Z,8.70
2018-11-11T10:28:06.379Z,8.80
2018-11-11T10:31:10.180Z,8.90
2018-11-11T10:33:40.346Z,8.90
2018-11-11T10:36:13.220Z,9.00
2018-11-11T10:38:47.841Z,9.00
2018-11-11T10:41:20.905Z,9.00
2018-11-11T10:43:53.590Z,9.10
2018-11-11T10:47:26.857Z,9.10
2018-11-11T10:49:58.045Z,9.10
2018-11-11T10:52:27.054Z,9.10
2018-11-11T10:54:56.217Z,9.10
2018-11-11T10:57:24.993Z,9.10
2018-11-11T10:59:54.033Z,9.20
2018-11-11T11:02:27.599Z,9.10
2018-11-11T11:05:12.007Z,9.10
2018-11-11T11:07:41.027Z,9.10
2018-11-11T11:10:09.972Z,9.20
2018-11-11T11:12:38.661Z,9.10
2018-11-11T11:15:08.365Z,9.10
2018-11-11T11:17:37.536Z,9.10
2018-11-11T11:20:06.788Z,9.20
2018-11-11T11:22:35.804Z,9.20
2018-11-11T11:25:04.405Z,9.20
2018-11-11T11:27:33.455Z,9.30
2018-11-11T11:30:02.525Z,9.30
2018-11-11T11:32:31.834Z,9.30
2018-11-11T11:35:00.882Z,9.30
2018-11-11T11:37:29.900Z,9.30
2018-11-11T11:39:59.009Z,9.30
2018-11-11T11:42:28.810Z,9.30
2018-11-11T11:44:58.018Z,9.40
2018-11-11T11:47:27.035Z,9.40
2018-11-11T11:49:59.116Z,9.40
2018-11-11T11:52:28.648Z,9.50
2018-11-11T11:54:57.780Z,9.50
2018-11-11T11:57:26.824Z,9.50
2018-11-11T11:59:55.913Z,9.40
2018-11-11T12:02:24.930Z,9.40
2018-11-11T12:04:53.306Z,9.30
2018-11-11T12:07:22.353Z,9.30
2018-11-11T12:09:51.068Z,9.30
2018-11-11T12:12:19.895Z,9.30
2018-11-11T12:14:48.926Z,9.30
2018-11-11T12:17:17.676Z,9.30
2018-11-11T12:19:47.269Z,9.30
2018-11-11T12:22:16.326Z,9.30
2018-11-11T12:24:45.350Z,9.30
2018-11-11T12:27:15.061Z,9.30
2018-11-11T12:29:44.614Z,9.30
2018-11-11T12:32:13.577Z,9.30
2018-11-11T12:34:42.637Z,9.30
2018-11-11T12:37:11.621Z,9.50
2018-11-11T12:39:40.958Z,9.70
2018-11-11T12:42:10.084Z,9.90
2018-11-11T12:44:39.150Z,10.00
2018-11-11T12:47:10.532Z,10.20
2018-11-11T12:49:39.698Z,10.20
2018-11-11T12:52:10.046Z,10.20
2018-11-11T12:54:39.072Z,10.20
2018-11-11T12:57:08.134Z,10.20
2018-11-11T12:59:37.221Z,10.30
2018-11-11T13:02:06.614Z,10.30
2018-11-11T13:04:35.859Z,10.50
2018-11-11T13:07:04.350Z,10.70
2018-11-11T13:09:33.131Z,11.00
2018-11-11T13:12:02.362Z,11.80
2018-11-11T13:14:31.780Z,12.70
2018-11-11T13:17:00.546Z,14.10
2018-11-11T13:19:29.342Z,15.40
2018-11-11T13:21:58.351Z,16.20
2018-11-11T13:24:27.776Z,16.50
2018-11-11T13:26:57.290Z,16.10
2018-11-11T13:29:26.121Z,15.80
2018-11-11T13:31:55.144Z,15.80
2018-11-11T13:34:24.050Z,15.10
2018-11-11T13:36:52.809Z,15.20
2018-11-11T13:39:21.214Z,15.00
2018-11-11T13:41:49.643Z,15.10
2018-11-11T13:44:18.106Z,15.20
2018-11-11T13:46:46.959Z,15.00
2018-11-11T13:49:16.526Z,14.50
2018-11-11T13:51:45.057Z,14.30
2018-11-11T13:54:13.640Z,13.70
2018-11-11T13:56:42.431Z,13.50
2018-11-11T13:59:11.206Z,14.00
2018-11-11T14:01:39.677Z,13.90
2018-11-11T14:04:08.969Z,13.40
2018-11-11T14:06:38.071Z,13.20
2018-11-11T14:09:09.705Z,12.90
2018-11-11T14:11:38.661Z,12.70
2018-11-11T14:14:07.962Z,12.40
2018-11-11T14:16:36.837Z,12.20
2018-11-11T14:19:06.252Z,12.10
2018-11-11T14:21:35.343Z,12.00
2018-11-11T14:24:03.982Z,11.90
2018-11-11T14:26:32.486Z,11.90
2018-11-11T14:29:01.891Z,11.80
2018-11-11T14:31:30.974Z,11.70
2018-11-11T14:33:59.975Z,11.70
2018-11-11T14:36:29.059Z,11.60
2018-11-11T14:38:58.079Z,11.60
2018-11-11T14:41:27.218Z,11.60
2018-11-11T14:43:56.282Z,11.60
2018-11-11T14:46:25.408Z,11.50
2018-11-11T14:48:54.109Z,11.60
2018-11-11T14:51:23.398Z,11.60
2018-11-11T14:53:52.409Z,11.50
2018-11-11T14:56:21.188Z,11.40
2018-11-11T14:58:50.674Z,11.30
2018-11-11T15:01:19.822Z,11.30
2018-11-11T15:03:48.637Z,11.20
2018-11-11T15:06:17.309Z,11.10
2018-11-11T15:08:46.047Z,11.00
2018-11-11T15:11:15.022Z,11.00
2018-11-11T15:13:44.097Z,10.90
2018-11-11T15:16:13.103Z,10.80
2018-11-11T15:18:42.120Z,10.80
2018-11-11T15:21:11.477Z,10.80
2018-11-11T15:23:40.514Z,10.70
2018-11-11T15:26:09.573Z,10.60
2018-11-11T15:28:38.597Z,10.60
2018-11-11T15:31:07.470Z,10.50
2018-11-11T15:33:36.531Z,10.40
2018-11-11T15:36:05.066Z,10.40
2018-11-11T15:38:34.118Z,10.40
2018-11-11T15:41:02.889Z,10.40
2018-11-11T15:43:31.584Z,10.30
2018-11-11T15:46:00.267Z,10.30
2018-11-11T15:48:29.071Z,10.30
2018-11-11T15:50:58.268Z,10.20
2018-11-11T15:53:27.374Z,10.20
2018-11-11T15:55:56.393Z,10.20
2018-11-11T15:58:25.390Z,10.30
2018-11-11T16:00:54.407Z,10.30
2018-11-11T16:03:23.428Z,10.30
2018-11-11T16:05:52.456Z,10.20
2018-11-11T16:08:21.133Z,10.20
2018-11-11T16:10:50.155Z,10.30
2018-11-11T16:13:19.334Z,10.40
2018-11-11T16:15:48.334Z,10.30
2018-11-11T16:18:17.451Z,10.30
2018-11-11T16:20:46.502Z,10.30
2018-11-11T16:23:15.531Z,10.30
2018-11-11T16:25:44.278Z,10.30
2018-11-11T16:28:13.512Z,10.20
2018-11-11T16:30:41.877Z,10.30
2018-11-11T16:33:10.779Z,10.20
2018-11-11T16:35:40.069Z,10.10
2018-11-11T16:38:09.108Z,10.10
2018-11-11T16:40:38.658Z,10.00
2018-11-11T16:43:07.777Z,10.00
2018-11-11T16:45:37.254Z,10.00
2018-11-11T16:48:06.337Z,10.00
2018-11-11T16:50:36.089Z,10.00
2018-11-11T16:53:05.912Z,9.90
2018-11-11T16:55:35.197Z,9.90
2018-11-11T16:58:03.937Z,9.90
2018-11-11T17:00:33.765Z,10.00
2018-11-11T17:03:03.181Z,9.90
2018-11-11T17:05:33.470Z,10.00
2018-11-11T17:08:03.302Z,10.00
2018-11-11T17:10:33.917Z,10.00
2018-11-11T17:13:04.234Z,10.10
2018-11-11T17:15:33.290Z,10.20
2018-11-11T17:18:02.031Z,10.20
2018-11-11T17:20:30.832Z,10.20
2018-11-11T17:23:01.321Z,10.30
2018-11-11T17:25:30.391Z,10.30
2018-11-11T17:27:59.223Z,10.30
2018-11-11T17:30:29.416Z,10.30
2018-11-11T17:32:59.288Z,10.30
2018-11-11T17:35:28.431Z,10.30
2018-11-11T17:37:56.884Z,10.30
2018-11-11T17:40:27.142Z,10.30
2018-11-11T17:42:56.658Z,10.30
2018-11-11T17:45:25.064Z,10.30
2018-11-11T17:47:54.792Z,10.30
2018-11-11T17:50:25.038Z,10.30
2018-11-11T17:52:54.236Z,10.20
2018-11-11T17:55:24.170Z,10.20
2018-11-11T17:57:53.205Z,10.30
2018-11-11T18:00:23.440Z,10.20
2018-11-11T18:02:52.549Z,10.20
2018-11-11T18:05:22.057Z,10.20
2018-11-11T18:07:50.792Z,10.20
2018-11-11T18:10:20.566Z,10.20
2018-11-11T18:12:49.371Z,10.20
2018-11-11T18:15:20.278Z,10.20
2018-11-11T18:17:49.625Z,10.10
2018-11-11T18:20:20.129Z,10.10
2018-11-11T18:22:49.510Z,10.10
2018-11-11T18:25:18.337Z,10.10
2018-11-11T18:27:46.853Z,10.20
2018-11-11T18:30:19.696Z,10.10
2018-11-11T18:32:48.697Z,10.10
2018-11-11T18:35:18.279Z,10.10
2018-11-11T18:37:47.287Z,10.10
2018-11-11T18:40:17.502Z,10.00
2018-11-11T18:42:46.697Z,9.90
2018-11-11T18:45:17.698Z,9.90
2018-11-11T18:47:47.569Z,9.80
2018-11-11T18:50:18.918Z,9.80
2018-11-11T18:52:48.082Z,9.80
2018-11-11T18:55:16.830Z,9.80
2018-11-11T18:57:46.109Z,9.80
2018-11-11T19:00:17.388Z,9.80
2018-11-11T19:02:47.411Z,9.80
2018-11-11T19:05:16.920Z,9.80
2018-11-11T19:07:45.629Z,9.80
2018-11-11T19:10:18.506Z,9.70
2018-11-11T19:12:48.862Z,9.70
2018-11-11T19:15:18.537Z,9.70
2018-11-11T19:17:47.570Z,9.70
2018-11-11T19:20:17.672Z,9.60
2018-11-11T19:22:46.577Z,9.60
2018-11-11T19:25:19.087Z,9.70
2018-11-11T19:27:49.919Z,9.70
2018-11-11T19:30:19.949Z,9.70
2018-11-11T19:32:49.969Z,9.70
2018-11-11T19:35:18.777Z,9.70
2018-11-11T19:37:48.716Z,9.70
2018-11-11T19:40:19.753Z,9.70
2018-11-11T19:42:49.479Z,9.80
2018-11-11T19:45:19.361Z,9.80
2018-11-11T19:47:48.162Z,9.80
2018-11-11T19:50:18.985Z,9.80
2018-11-11T19:52:49.269Z,9.80
2018-11-11T19:55:18.715Z,9.70
2018-11-11T19:57:47.791Z,9.70
2018-11-11T20:00:18.857Z,9.70
2018-11-11T20:02:48.978Z,9.70
2018-11-11T20:05:18.875Z,9.70
2018-11-11T20:07:48.695Z,9.70
2018-11-11T20:10:18.531Z,9.80
2018-11-11T20:12:47.465Z,9.80
2018-11-11T20:15:17.329Z,9.70
2018-11-11T20:17:47.345Z,9.70
2018-11-11T20:20:24.157Z,9.80
2018-11-11T20:22:53.152Z,9.80
2018-11-11T20:25:22.056Z,9.80
2018-11-11T20:27:51.849Z,9.80
2018-11-11T20:30:22.180Z,9.80
2018-11-11T20:32:51.025Z,9.70
2018-11-11T20:35:21.188Z,9.70
2018-11-11T20:37:50.446Z,9.70
2018-11-11T20:40:20.789Z,9.60
2018-11-11T20:42:49.845Z,9.60
2018-11-11T20:45:19.886Z,9.60
2018-11-11T20:47:49.464Z,9.60
2018-11-11T20:50:20.297Z,9.60
2018-11-11T20:52:51.415Z,9.60
2018-11-11T20:55:20.493Z,9.70
2018-11-11T20:57:51.509Z,9.70
2018-11-11T21:00:22.724Z,9.70
2018-11-11T21:02:52.068Z,9.70
2018-11-11T21:05:27.382Z,9.80
2018-11-11T21:07:58.057Z,9.80
2018-11-11T21:10:33.763Z,9.90
2018-11-11T21:13:03.032Z,9.90
2018-11-11T21:16:09.304Z,9.90
2018-11-11T21:18:44.466Z,10.00
2018-11-11T21:21:19.617Z,10.00
2018-11-11T21:23:50.449Z,10.00
2018-11-11T21:26:19.885Z,10.10
2018-11-11T21:28:53.419Z,10.10
2018-11-11T21:31:22.437Z,10.10
2018-11-11T21:33:52.649Z,10.00
2018-11-11T21:36:21.394Z,10.00
2018-11-11T21:38:51.202Z,10.00
2018-11-11T21:41:22.945Z,9.90
2018-11-11T21:43:52.115Z,9.90
2018-11-11T21:46:21.409Z,10.00
2018-11-11T21:48:50.467Z,10.00
2018-11-11T21:51:20.001Z,10.10
2018-11-11T21:53:49.397Z,10.10
2018-11-11T21:56:18.163Z,10.10
2018-11-11T21:58:57.325Z,10.10
2018-11-11T22:01:29.081Z,10.10
2018-11-11T22:03:58.093Z,10.10
2018-11-11T22:06:27.381Z,10.10
2018-11-11T22:08:57.936Z,10.10
2018-11-11T22:11:26.943Z,10.10
2018-11-11T22:13:56.724Z,10.10
2018-11-11T22:16:28.540Z,10.20
2018-11-11T22:18:57.862Z,10.20
2018-11-11T22:21:29.472Z,10.20
2018-11-11T22:23:58.574Z,10.20
2018-11-11T22:26:29.011Z,10.20
2018-11-11T22:28:59.976Z,10.20
2018-11-11T22:31:30.694Z,10.30
2018-11-11T22:34:00.015Z,10.30
2018-11-11T22:36:29.171Z,10.30
2018-11-11T22:38:58.278Z,10.30
2018-11-11T22:41:27.365Z,10.30
2018-11-11T22:43:56.390Z,10.30
2018-11-11T22:46:25.082Z,10.30
2018-11-11T22:48:54.084Z,10.30
2018-11-11T22:51:22.769Z,10.30
2018-11-11T22:53:51.499Z,10.30
2018-11-11T22:56:20.158Z,10.20
2018-11-11T22:58:48.904Z,10.20
2018-11-11T23:01:19.456Z,10.10
2018-11-11T23:03:48.129Z,10.20
2018-11-11T23:06:16.913Z,10.10
2018-11-11T23:08:47.586Z,10.10
2018-11-11T23:11:16.848Z,10.10
2018-11-11T23:13:45.582Z,10.10
2018-11-11T23:16:14.275Z,10.00
2018-11-11T23:18:43.442Z,10.00
2018-11-11T23:21:12.136Z,10.00
2018-11-11T23:23:41.147Z,10.00
2018-11-11T23:26:10.501Z,10.00
2018-11-11T23:28:39.284Z,9.90
2018-11-11T23:31:07.604Z,9.90
2018-11-11T23:33:36.769Z,9.80
2018-11-11T23:36:05.396Z,9.80
2018-11-11T23:38:34.410Z,9.80
2018-11-11T23:41:03.418Z,9.80
2018-11-11T23:43:32.396Z,9.80
2018-11-11T23:46:01.065Z,9.70
2018-11-11T23:48:29.713Z,9.80
2018-11-11T23:50:59.056Z,9.80
2018-11-11T23:53:27.714Z,9.80
2018-11-11T23:55:56.759Z,9.90
2018-11-11T23:58:25.761Z,9.80
